Time;durP1;ratioP1;P1;durP2;ratioP2;P2;SDS_P1;SDS_P2;PMS_P1;PMS_P2;Temp;Humidity;BMP_temperature;BMP_pressure;BME280_temperature;BME280_humidity;BME280_pressure;Samples;Min_cycle;Max_cycle;Signal;HPM_P1;HPM_P2
2023/05/28 00:00:01;;;;;;;5.17;4.67;;;20.90;99.90;;;;;;1871635;77;21098;-78
2023/05/28 00:02:56;;;;;;;6.62;4.67;;;20.90;99.90;;;;;;1883486;76;21110;-78
2023/05/28 00:05:48;;;;;;;5.97;4.65;;;20.90;99.90;;;;;;1871486;77;21106;-78
2023/05/28 00:08:40;;;;;;;5.65;4.65;;;20.80;99.90;;;;;;1871602;77;21514;-78
2023/05/28 00:11:32;;;;;;;7.33;5.00;;;20.80;99.90;;;;;;1905522;75;21153;-78
2023/05/28 00:14:23;;;;;;;7.10;4.92;;;20.80;99.90;;;;;;1883498;76;21098;-78
2023/05/28 00:17:15;;;;;;;5.08;4.58;;;20.80;99.90;;;;;;1900736;75;21128;-78
2023/05/28 00:20:08;;;;;;;5.45;4.60;;;20.80;99.90;;;;;;1916391;75;21118;-78
2023/05/28 00:23:00;;;;;;;5.45;4.65;;;20.80;99.90;;;;;;1886637;75;21178;-79
2023/05/28 00:25:53;;;;;;;5.97;4.60;;;20.70;99.90;;;;;;1883012;76;21134;-79
2023/05/28 00:28:45;;;;;;;6.22;4.75;;;20.70;99.90;;;;;;1903138;75;21067;-78
2023/05/28 00:31:39;;;;;;;5.28;4.60;;;20.50;99.90;;;;;;1888776;75;21102;-78
2023/05/28 00:34:30;;;;;;;6.15;3.87;;;20.40;99.90;;;;;;1871444;77;21106;-78
2023/05/28 00:37:22;;;;;;;5.33;4.30;;;20.40;99.90;;;;;;1871359;77;21661;-78
2023/05/28 00:40:15;;;;;;;5.15;4.20;;;20.40;99.90;;;;;;1904952;75;21142;-78
2023/05/28 00:43:07;;;;;;;5.78;4.05;;;20.20;99.90;;;;;;1887906;75;21118;-78
2023/05/28 00:46:00;;;;;;;5.53;4.47;;;20.20;99.90;;;;;;1871485;77;21172;-78
2023/05/28 00:48:53;;;;;;;4.78;3.75;;;20.20;99.90;;;;;;1890157;75;21351;-78
2023/05/28 00:51:45;;;;;;;5.40;3.72;;;20.10;99.90;;;;;;1892955;75;21078;-78
2023/05/28 00:54:36;;;;;;;7.05;4.17;;;20.10;99.90;;;;;;1871511;77;21548;-78
2023/05/28 00:57:28;;;;;;;6.30;4.10;;;20.00;99.90;;;;;;1895674;75;21574;-78
2023/05/28 01:00:20;;;;;;;5.60;4.50;;;19.90;99.90;;;;;;1886547;75;21135;-78
2023/05/28 01:03:13;;;;;;;6.37;4.45;;;19.80;99.90;;;;;;1870973;77;21193;-78
2023/05/28 01:06:09;;;;;;;5.72;4.47;;;19.70;99.90;;;;;;1882655;76;21074;-78
2023/05/28 01:09:00;;;;;;;5.65;4.20;;;19.70;99.90;;;;;;1898472;75;21110;-78
2023/05/28 01:11:53;;;;;;;5.90;4.47;;;19.70;99.90;;;;;;1883738;75;21643;-78
2023/05/28 01:14:45;;;;;;;5.42;4.47;;;19.70;99.90;;;;;;1876548;75;21108;-78
2023/05/28 01:17:38;;;;;;;13.35;4.22;;;19.60;99.90;;;;;;1882007;75;21122;-78
2023/05/28 01:20:30;;;;;;;5.47;4.25;;;19.50;99.90;;;;;;1871471;77;21140;-78
2023/05/28 01:23:22;;;;;;;6.25;4.45;;;19.50;99.90;;;;;;1871541;77;21164;-78
2023/05/28 01:26:14;;;;;;;6.33;4.08;;;19.40;99.90;;;;;;1893144;75;21578;-78
2023/05/28 01:29:15;;;;;;;6.47;4.12;;;19.40;99.90;;;;;;1883306;76;21168;-78
2023/05/28 01:32:07;;;;;;;5.28;4.42;;;19.40;99.90;;;;;;1871490;77;21122;-78
2023/05/28 01:34:59;;;;;;;6.20;4.40;;;19.30;99.90;;;;;;1886809;75;21165;-78
2023/05/28 01:37:53;;;;;;;7.45;4.67;;;19.20;99.90;;;;;;1895463;74;21101;-78
2023/05/28 01:43:26;;;;;;;6.42;5.22;;;19.20;99.90;;;;;;1975093;72;22315;-78
2023/05/28 01:46:18;;;;;;;9.98;4.87;;;19.30;99.90;;;;;;1933617;73;21147;-77
2023/05/28 01:49:12;;;;;;;10.18;4.72;;;19.30;99.90;;;;;;1916302;75;21168;-78
2023/05/28 01:52:05;;;;;;;5.28;4.50;;;19.30;99.90;;;;;;1916744;75;21191;-78
2023/05/28 01:54:57;;;;;;;6.75;4.97;;;19.10;99.90;;;;;;1916970;75;21119;-77
2023/05/28 01:57:48;;;;;;;6.33;5.03;;;19.00;99.90;;;;;;1917073;75;21108;-77
2023/05/28 02:00:43;;;;;;;7.87;4.67;;;19.00;99.90;;;;;;1917105;75;21051;-78
2023/05/28 02:03:34;;;;;;;6.15;4.72;;;19.10;99.90;;;;;;1917129;75;21044;-78
2023/05/28 02:06:27;;;;;;;6.30;4.75;;;19.10;99.90;;;;;;1919514;73;21155;-78
2023/05/28 02:09:20;;;;;;;5.97;4.95;;;19.10;99.90;;;;;;1930341;73;21064;-78
2023/05/28 02:12:11;;;;;;;7.75;5.33;;;19.10;99.90;;;;;;1916934;75;21094;-79
2023/05/28 02:15:03;;;;;;;7.28;4.60;;;19.10;99.90;;;;;;1916909;74;21095;-79
2023/05/28 02:17:55;;;;;;;7.50;4.80;;;19.20;99.90;;;;;;1921435;73;21064;-78
2023/05/28 02:20:47;;;;;;;7.37;4.67;;;19.10;99.90;;;;;;1928008;73;21098;-78
2023/05/28 02:23:40;;;;;;;6.25;4.85;;;19.10;99.90;;;;;;1934350;73;21137;-78
2023/05/28 02:26:31;;;;;;;9.40;4.75;;;19.10;99.90;;;;;;1917045;75;21167;-78
2023/05/28 02:29:23;;;;;;;5.12;4.55;;;19.10;99.90;;;;;;1917121;75;21117;-78
2023/05/28 02:32:16;;;;;;;5.53;4.87;;;19.10;99.90;;;;;;1917174;75;21043;-78
2023/05/28 02:35:09;;;;;;;5.33;4.47;;;19.10;99.90;;;;;;1916796;75;21554;-78
2023/05/28 02:38:00;;;;;;;6.80;4.85;;;19.00;99.90;;;;;;1916815;75;21529;-78
2023/05/28 02:40:51;;;;;;;6.12;4.60;;;19.00;99.90;;;;;;1916599;75;21171;-78
2023/05/28 02:43:43;;;;;;;5.87;4.50;;;19.00;99.90;;;;;;1916675;74;21149;-78
2023/05/28 02:46:34;;;;;;;6.90;4.75;;;19.00;99.90;;;;;;1916292;75;21197;-78
2023/05/28 02:49:25;;;;;;;5.78;4.60;;;19.10;99.90;;;;;;1904537;75;22057;-78
2023/05/28 02:52:17;;;;;;;5.45;4.90;;;19.10;99.90;;;;;;1917178;75;21098;-78
2023/05/28 02:55:10;;;;;;;7.05;4.67;;;19.10;99.90;;;;;;1920373;73;21167;-78
2023/05/28 02:58:02;;;;;;;6.28;4.72;;;19.10;99.90;;;;;;1928627;73;21108;-78
2023/05/28 03:00:54;;;;;;;6.70;4.85;;;19.10;99.90;;;;;;1915922;75;21058;-78
2023/05/28 03:03:46;;;;;;;5.78;4.75;;;19.10;99.90;;;;;;1903431;75;21098;-78
2023/05/28 03:06:38;;;;;;;5.58;5.05;;;19.00;99.90;;;;;;1916228;75;21191;-78
2023/05/28 03:09:29;;;;;;;5.85;5.28;;;19.00;99.90;;;;;;1916179;75;21115;-78
2023/05/28 03:12:21;;;;;;;7.10;4.85;;;19.00;99.90;;;;;;1916588;75;21473;-78
2023/05/28 03:15:12;;;;;;;5.95;5.12;;;19.10;99.90;;;;;;1916296;75;21111;-78
2023/05/28 03:18:04;;;;;;;6.55;4.30;;;19.10;99.90;;;;;;1916224;75;21140;-78
2023/05/28 03:20:57;;;;;;;6.35;5.03;;;19.10;99.90;;;;;;1903760;75;21161;-78
2023/05/28 03:23:48;;;;;;;7.30;4.58;;;19.10;99.90;;;;;;1904091;75;21114;-78
2023/05/28 03:26:50;;;;;;;6.58;4.17;;;19.10;99.90;;;;;;1916432;75;21116;-78
2023/05/28 03:29:43;;;;;;;7.10;4.83;;;19.10;99.90;;;;;;1916421;75;21114;-78
2023/05/28 03:32:39;;;;;;;5.40;4.72;;;19.10;99.90;;;;;;1916735;72;21094;-78
2023/05/28 03:35:30;;;;;;;7.37;5.03;;;19.10;99.90;;;;;;1884987;76;21356;-78
2023/05/28 03:41:01;;;;;;;5.83;4.20;;;19.00;99.90;;;;;;1940498;72;22149;-78
2023/05/28 03:43:52;;;;;;;7.00;4.53;;;19.00;99.90;;;;;;1897429;74;21172;-78
2023/05/28 03:46:43;;;;;;;7.15;4.22;;;19.00;99.90;;;;;;1922129;74;21488;-78
2023/05/28 03:49:35;;;;;;;6.92;4.78;;;19.00;99.90;;;;;;1900861;75;21103;-78
2023/05/28 03:52:27;;;;;;;4.78;4.25;;;19.00;99.90;;;;;;1895847;75;21155;-78
2023/05/28 03:55:18;;;;;;;6.40;4.75;;;19.00;99.90;;;;;;1894832;75;21203;-78
2023/05/28 03:58:14;;;;;;;5.35;4.85;;;19.10;99.90;;;;;;1894372;75;21087;-78
2023/05/28 04:01:03;;;;;;;5.78;4.95;;;19.10;99.90;;;;;;1904211;75;21145;-78
2023/05/28 04:03:56;;;;;;;5.97;4.90;;;19.10;99.90;;;;;;1897221;75;21143;-78
2023/05/28 04:06:49;;;;;;;8.08;5.10;;;19.10;99.90;;;;;;1908400;75;21656;-78
2023/05/28 04:09:41;;;;;;;8.73;4.65;;;19.00;99.90;;;;;;1922428;74;21119;-78
2023/05/28 04:12:32;;;;;;;6.90;5.08;;;19.10;99.90;;;;;;1919417;74;21133;-78
2023/05/28 04:15:24;;;;;;;5.30;4.67;;;19.00;99.90;;;;;;1898562;75;21191;-78
2023/05/28 04:18:15;;;;;;;7.85;5.25;;;19.00;99.90;;;;;;1929424;74;21139;-78
2023/05/28 04:21:07;;;;;;;6.30;5.15;;;19.00;99.90;;;;;;1916828;75;21089;-78
2023/05/28 04:23:59;;;;;;;6.45;5.17;;;19.00;99.90;;;;;;1920739;74;21108;-78
2023/05/28 04:26:51;;;;;;;6.37;5.30;;;18.90;99.90;;;;;;1909049;74;21076;-79
2023/05/28 04:29:43;;;;;;;6.35;5.08;;;18.90;99.90;;;;;;1897456;74;21156;-78
2023/05/28 04:32:35;;;;;;;5.33;4.83;;;18.90;99.90;;;;;;1921470;74;21164;-78
2023/05/28 04:35:29;;;;;;;7.70;5.00;;;18.90;99.90;;;;;;1926844;74;21113;-78
2023/05/28 04:38:21;;;;;;;7.50;5.08;;;19.00;99.90;;;;;;1917085;75;21054;-79
2023/05/28 04:41:14;;;;;;;5.42;4.90;;;18.90;99.90;;;;;;1903258;74;21380;-78
2023/05/28 04:44:08;;;;;;;6.85;5.00;;;19.00;99.90;;;;;;1880223;76;21172;-71
2023/05/28 04:47:00;;;;;;;5.60;5.00;;;19.00;99.90;;;;;;1897012;74;21071;-72
2023/05/28 04:49:53;;;;;;;5.60;5.00;;;19.10;99.90;;;;;;1927139;74;21223;-72
2023/05/28 04:52:45;;;;;;;7.78;5.58;;;19.10;99.90;;;;;;1902175;74;21085;-72
2023/05/28 04:55:37;;;;;;;5.87;5.28;;;19.00;99.90;;;;;;1894125;75;21150;-72
2023/05/28 04:58:28;;;;;;;6.05;5.30;;;18.90;99.90;;;;;;1897302;74;21095;-72
2023/05/28 05:01:22;;;;;;;8.28;5.40;;;19.00;99.90;;;;;;1921232;74;21171;-72
2023/05/28 05:04:14;;;;;;;7.53;5.17;;;19.00;99.90;;;;;;1900622;75;21110;-72
2023/05/28 05:07:07;;;;;;;6.65;5.08;;;19.00;99.90;;;;;;1902338;74;21184;-72
2023/05/28 05:09:58;;;;;;;6.20;5.60;;;18.90;99.90;;;;;;1922101;74;21603;-72
2023/05/28 05:12:49;;;;;;;9.18;5.45;;;19.00;99.90;;;;;;1913568;75;21237;-72
2023/05/28 05:15:41;;;;;;;6.83;5.33;;;19.00;99.90;;;;;;1912052;74;21052;-72
2023/05/28 05:18:32;;;;;;;6.37;5.25;;;18.90;99.90;;;;;;1904407;74;21193;-76
2023/05/28 05:21:24;;;;;;;7.60;5.20;;;19.00;99.90;;;;;;1926070;74;21143;-75
2023/05/28 05:24:15;;;;;;;6.15;5.15;;;19.00;99.90;;;;;;1916664;74;21545;-75
2023/05/28 05:27:07;;;;;;;7.75;5.72;;;19.10;99.90;;;;;;1883672;76;21135;-75
2023/05/28 05:29:58;;;;;;;6.83;5.42;;;19.10;99.90;;;;;;1906666;75;21105;-75
2023/05/28 05:32:50;;;;;;;6.90;5.67;;;19.20;99.90;;;;;;1915998;75;21063;-75
2023/05/28 05:35:42;;;;;;;6.22;5.03;;;19.10;99.90;;;;;;1916421;74;21164;-75
2023/05/28 05:38:35;;;;;;;6.80;4.92;;;19.10;99.90;;;;;;1893586;75;21156;-76
2023/05/28 05:41:28;;;;;;;9.05;5.40;;;19.00;99.90;;;;;;1912597;73;21146;-76
2023/05/28 05:44:21;;;;;;;9.43;5.53;;;19.00;99.90;;;;;;1894704;74;21095;-72
2023/05/28 05:47:12;;;;;;;8.13;5.60;;;19.00;99.90;;;;;;1922199;74;21160;-72
2023/05/28 05:50:04;;;;;;;5.83;5.00;;;19.10;99.90;;;;;;1907219;74;21197;-72
2023/05/28 05:52:59;;;;;;;6.10;5.37;;;19.10;99.90;;;;;;1899463;74;21578;-72
2023/05/28 05:55:50;;;;;;;8.55;5.30;;;19.20;99.90;;;;;;1896670;75;21098;-72
2023/05/28 05:58:42;;;;;;;6.37;5.25;;;19.20;99.90;;;;;;1894309;75;21098;-72
2023/05/28 06:01:35;;;;;;;7.58;4.72;;;19.20;99.90;;;;;;1916196;75;21067;-72
2023/05/28 06:04:31;;;;;;;8.75;5.37;;;19.00;99.90;;;;;;1927560;74;21689;-72
2023/05/28 06:07:21;;;;;;;6.00;5.37;;;19.00;99.90;;;;;;1914100;74;21071;-72
2023/05/28 06:10:14;;;;;;;8.10;5.70;;;19.10;99.90;;;;;;1854579;74;21126;-72
2023/05/28 06:13:06;;;;;;;6.15;5.08;;;19.10;99.90;;;;;;1906881;74;21309;-72
2023/05/28 06:15:59;;;;;;;7.17;5.22;;;19.20;99.90;;;;;;1909937;75;21082;-72
2023/05/28 06:18:50;;;;;;;7.05;5.12;;;19.30;99.90;;;;;;1896009;74;21111;-72
2023/05/28 06:21:42;;;;;;;8.50;5.35;;;19.30;99.90;;;;;;1921507;74;21495;-72
2023/05/28 06:24:33;;;;;;;7.15;5.12;;;19.40;99.90;;;;;;1916060;74;21095;-71
2023/05/28 06:27:25;;;;;;;6.67;4.67;;;19.40;99.90;;;;;;1909854;74;21209;-72
2023/05/28 06:30:21;;;;;;;6.95;5.08;;;19.60;99.90;;;;;;1908164;75;21153;-72
2023/05/28 06:33:13;;;;;;;7.78;5.20;;;19.60;99.90;;;;;;1888496;75;21074;-71
2023/05/28 06:36:06;;;;;;;5.28;4.78;;;19.70;99.90;;;;;;1896402;75;21490;-71
2023/05/28 06:38:58;;;;;;;8.00;4.83;;;19.80;99.90;;;;;;1908321;75;21122;-71
2023/05/28 06:41:51;;;;;;;7.67;4.85;;;19.80;99.90;;;;;;1906593;75;21086;-71
2023/05/28 06:44:51;;;;;;;5.80;5.15;;;19.90;99.90;;;;;;1909052;74;21176;-71
2023/05/28 06:47:42;;;;;;;6.08;5.00;;;20.00;99.90;;;;;;1897862;74;21572;-72
2023/05/28 06:50:34;;;;;;;7.30;5.55;;;20.10;99.90;;;;;;1920268;74;21147;-71
2023/05/28 06:53:26;;;;;;;6.53;5.42;;;20.10;99.90;;;;;;1925579;74;21120;-71
2023/05/28 06:56:18;;;;;;;9.15;5.97;;;20.20;99.90;;;;;;1926379;74;21199;-72
2023/05/28 06:59:27;;;;;;;8.70;5.45;;;20.30;99.90;;;;;;1910864;74;21198;-71
2023/05/28 07:02:36;;;;;;;6.37;5.40;;;20.30;99.90;;;;;;1900371;75;21095;-71
2023/05/28 07:05:38;;;;;;;9.75;5.72;;;20.40;99.90;;;;;;1903654;74;21511;-71
2023/05/28 07:08:32;;;;;;;;;;;20.40;99.90;;;;;;1923768;74;21097;-75
2023/05/28 07:11:23;;;;;;;7.92;6.28;;;20.50;99.90;;;;;;1894136;75;20234;-75
2023/05/28 07:14:15;;;;;;;8.00;6.15;;;20.60;99.90;;;;;;1915897;74;21109;-72
2023/05/28 07:17:07;;;;;;;9.35;6.75;;;20.70;99.90;;;;;;1915905;75;21109;-72
2023/05/28 07:20:04;;;;;;;10.25;6.15;;;20.80;99.90;;;;;;1899599;74;21099;-72
2023/05/28 07:22:57;;;;;;;7.58;5.65;;;20.80;99.90;;;;;;1925648;74;21110;-71
2023/05/28 07:25:49;;;;;;;8.73;5.58;;;20.90;99.90;;;;;;1930782;74;21181;-75
2023/05/28 07:28:40;;;;;;;7.05;5.28;;;20.90;99.90;;;;;;1919520;74;21199;-76
2023/05/28 07:31:33;;;;;;;6.65;5.37;;;21.10;99.90;;;;;;1892464;76;21130;-72
2023/05/28 07:34:28;;;;;;;5.30;4.78;;;21.20;99.90;;;;;;1927875;74;21542;-75
2023/05/28 07:37:20;;;;;;;5.97;5.35;;;21.20;99.90;;;;;;1928578;74;21167;-72
2023/05/28 07:40:12;;;;;;;6.08;5.08;;;21.30;99.90;;;;;;1930779;74;21595;-75
2023/05/28 07:43:05;;;;;;;6.80;5.00;;;21.30;99.90;;;;;;1905565;74;21130;-75
2023/05/28 07:45:58;;;;;;;7.35;4.50;;;21.40;99.90;;;;;;1896058;74;21085;-72
2023/05/28 07:48:53;;;;;;;6.20;4.87;;;21.50;99.90;;;;;;1933010;74;21147;-73
2023/05/28 07:51:52;;;;;;;7.20;4.62;;;21.60;99.90;;;;;;1915929;74;21462;-75
2023/05/28 07:54:46;;;;;;;5.45;4.30;;;21.70;99.90;;;;;;1916267;74;21175;-72
2023/05/28 07:57:39;;;;;;;5.20;4.47;;;21.80;99.90;;;;;;1892173;75;21101;-71
2023/05/28 08:00:31;;;;;;;6.87;4.67;;;21.90;99.90;;;;;;1882380;75;21628;-75
2023/05/28 08:03:27;;;;;;;5.12;4.22;;;21.90;99.90;;;;;;1917905;74;21130;-75
2023/05/28 08:06:18;;;;;;;5.55;4.20;;;22.00;99.90;;;;;;1918709;74;21087;-75
2023/05/28 08:09:09;;;;;;;4.58;4.10;;;22.10;99.90;;;;;;1913736;74;21102;-75
2023/05/28 08:12:03;;;;;;;6.85;4.20;;;22.10;99.90;;;;;;1884093;75;21141;-75
2023/05/28 08:14:55;;;;;;;5.28;4.08;;;22.30;99.90;;;;;;1882090;75;21157;-76
2023/05/28 08:17:47;;;;;;;6.12;4.12;;;22.30;99.90;;;;;;1920480;74;21131;-75
2023/05/28 08:20:41;;;;;;;4.55;4.15;;;22.40;99.90;;;;;;1883496;75;21124;-75
2023/05/28 08:23:34;;;;;;;7.47;4.53;;;22.50;99.90;;;;;;1907769;74;21098;-72
2023/05/28 08:26:37;;;;;;;5.83;4.50;;;22.50;99.90;;;;;;1875463;75;21511;-72
2023/05/28 08:29:28;;;;;;;5.65;4.70;;;22.60;99.90;;;;;;1862220;75;21140;-72
2023/05/28 08:35:00;;;;;;;6.70;4.65;;;22.70;99.90;;;;;;1940487;72;22133;-75
2023/05/28 08:37:52;;;;;;;7.50;4.83;;;22.70;99.90;;;;;;1895134;75;21220;-72
2023/05/28 08:40:52;;;;;;;5.95;4.65;;;22.80;99.90;;;;;;1895093;75;21145;-72
2023/05/28 08:43:45;;;;;;;5.28;4.40;;;22.90;99.90;;;;;;1913670;75;21168;-72
2023/05/28 08:46:37;;;;;;;6.00;4.35;;;23.10;99.90;;;;;;1883962;75;21130;-75
2023/05/28 08:49:42;;;;;;;6.50;4.65;;;23.20;99.90;;;;;;1894754;75;21155;-75
2023/05/28 08:52:34;;;;;;;7.15;4.35;;;23.20;99.90;;;;;;1896087;75;21105;-75
2023/05/28 08:55:26;;;;;;;5.72;4.47;;;23.30;99.90;;;;;;1894741;75;21047;-72
2023/05/28 08:58:36;;;;;;;6.65;5.15;;;23.40;99.90;;;;;;1916437;75;21129;-72
2023/05/28 09:04:13;;;;;;;6.03;5.03;;;23.50;99.90;;;;;;1940834;72;22189;-75
2023/05/28 09:07:06;;;;;;;6.08;4.33;;;23.50;99.90;;;;;;1894784;75;21118;-72
2023/05/28 09:10:01;;;;;;;5.00;4.50;;;23.60;99.90;;;;;;1894893;75;21125;-72
2023/05/28 09:13:01;;;;;;;6.20;5.03;;;23.70;99.90;;;;;;1915082;75;21162;-75
2023/05/28 09:15:57;;;;;;;6.50;5.08;;;23.70;99.90;;;;;;1903563;75;21118;-75
2023/05/28 09:18:51;;;;;;;5.50;4.55;;;23.80;99.90;;;;;;1899885;75;21131;-75
2023/05/28 09:24:35;;;;;;;8.45;4.60;;;23.90;99.90;;;;;;1936709;72;22182;-74
2023/05/28 09:27:45;;;;;;;6.08;4.83;;;24.00;99.90;;;;;;1900139;75;21167;-75
2023/05/28 09:30:37;;;;;;;6.28;4.33;;;24.00;99.90;;;;;;1894764;75;21424;-75
2023/05/28 09:33:29;;;;;;;5.50;4.22;;;24.00;99.90;;;;;;1900556;75;21094;-74
2023/05/28 09:36:20;;;;;;;5.47;4.55;;;24.20;99.90;;;;;;1895556;75;21098;-75
2023/05/28 09:39:11;;;;;;;6.70;4.67;;;24.30;99.90;;;;;;1888182;75;21128;-75
2023/05/28 09:42:06;;;;;;;7.05;4.95;;;24.40;99.90;;;;;;1886382;75;21163;-75
2023/05/28 09:44:56;;;;;;;6.92;5.25;;;24.50;99.90;;;;;;1897234;75;21212;-75
2023/05/28 09:47:47;;;;;;;6.72;4.67;;;24.50;99.90;;;;;;1883743;75;21161;-75
2023/05/28 09:50:39;;;;;;;7.00;4.60;;;24.50;99.90;;;;;;1884039;75;21176;-75
2023/05/28 09:53:33;;;;;;;5.78;4.72;;;24.50;99.90;;;;;;1905686;75;21160;-74
2023/05/28 09:56:27;;;;;;;7.05;4.55;;;24.50;99.90;;;;;;1905129;75;21636;-74
2023/05/28 09:59:20;;;;;;;6.80;5.03;;;24.50;99.90;;;;;;1879514;75;21156;-75
2023/05/28 10:02:18;;;;;;;5.65;4.95;;;24.50;99.90;;;;;;1895361;75;21103;-75
2023/05/28 10:05:11;;;;;;;5.65;4.65;;;24.60;99.90;;;;;;1894635;75;21556;-75
2023/05/28 10:08:04;;;;;;;5.87;5.03;;;24.60;99.90;;;;;;1894004;75;21192;-75
2023/05/28 10:10:56;;;;;;;5.25;4.72;;;24.70;99.90;;;;;;1896645;75;21114;-75
2023/05/28 10:13:48;;;;;;;5.47;4.72;;;24.70;99.90;;;;;;1883676;75;21143;-75
2023/05/28 10:16:39;;;;;;;5.42;4.92;;;24.80;99.90;;;;;;1906021;75;21145;-75
2023/05/28 10:19:31;;;;;;;5.30;4.78;;;24.90;99.90;;;;;;1887397;75;21157;-75
2023/05/28 10:22:23;;;;;;;5.60;5.00;;;25.00;99.90;;;;;;1896178;75;21096;-75
2023/05/28 10:25:14;;;;;;;7.05;5.33;;;25.00;99.90;;;;;;1890366;76;21153;-75
2023/05/28 10:28:06;;;;;;;6.40;5.15;;;25.10;99.90;;;;;;1912729;74;21287;-75
2023/05/28 10:31:06;;;;;;;6.37;5.20;;;25.10;99.90;;;;;;1897927;74;21102;-74
2023/05/28 10:33:57;;;;;;;6.40;5.28;;;25.20;99.90;;;;;;1903277;74;21171;-75
2023/05/28 10:36:55;;;;;;;5.30;4.80;;;25.30;99.90;;;;;;1910589;74;21115;-75
2023/05/28 10:39:48;;;;;;;8.08;5.37;;;25.30;99.90;;;;;;1907819;74;21175;-75
2023/05/28 10:42:43;;;;;;;6.72;4.60;;;25.40;99.90;;;;;;1903688;74;21106;-75
2023/05/28 10:45:39;;;;;;;6.50;5.00;;;25.50;99.90;;;;;;1897333;74;21110;-75
2023/05/28 10:48:32;;;;;;;7.47;5.10;;;25.50;99.90;;;;;;1914983;74;21576;-76
2023/05/28 10:51:23;;;;;;;5.35;4.62;;;25.70;99.90;;;;;;1911668;74;21129;-75
2023/05/28 10:54:23;;;;;;;5.53;4.72;;;25.90;99.90;;;;;;1906057;74;21207;-75
2023/05/28 10:57:16;;;;;;;7.97;5.42;;;26.00;99.90;;;;;;1903309;74;21114;-75
2023/05/28 11:00:14;;;;;;;5.70;5.10;;;26.00;99.90;;;;;;1919291;74;21114;-75
2023/05/28 11:03:05;;;;;;;5.53;4.90;;;26.10;99.90;;;;;;1924973;74;21598;-75
2023/05/28 11:05:56;;;;;;;5.25;4.60;;;26.10;99.90;;;;;;1910740;74;21113;-75
2023/05/28 11:08:50;;;;;;;5.33;4.83;;;26.20;99.90;;;;;;1916105;74;21205;-75
2023/05/28 11:14:19;;;;;;;6.22;4.90;;;26.40;99.90;;;;;;1953295;72;22637;-74
2023/05/28 11:17:12;;;;;;;5.90;5.20;;;26.40;99.90;;;;;;1899987;75;21518;-74
2023/05/28 11:20:05;;;;;;;5.33;4.75;;;26.30;99.90;;;;;;1894954;75;21099;-75
2023/05/28 11:22:57;;;;;;;4.80;4.30;;;26.30;99.90;;;;;;1894735;75;21161;-74
2023/05/28 11:25:48;;;;;;;5.42;4.00;;;26.30;99.90;;;;;;1894415;75;21138;-74
2023/05/28 11:28:42;;;;;;;5.58;4.67;;;26.40;99.90;;;;;;1899365;75;21099;-74
2023/05/28 11:31:39;;;;;;;5.83;4.87;;;26.50;99.90;;;;;;1897813;75;21261;-74
2023/05/28 11:34:30;;;;;;;8.03;5.20;;;26.70;99.90;;;;;;1906213;75;21155;-74
2023/05/28 11:37:26;;;;;;;5.10;4.60;;;26.80;99.90;;;;;;1905814;75;21142;-74
2023/05/28 11:40:18;;;;;;;5.90;5.30;;;26.90;99.90;;;;;;1892377;75;21094;-75
2023/05/28 11:43:10;;;;;;;5.17;4.67;;;27.10;99.90;;;;;;1899001;75;21172;-75
2023/05/28 11:46:02;;;;;;;5.65;4.75;;;27.20;99.90;;;;;;1896126;75;21618;-74
2023/05/28 11:48:53;;;;;;;7.05;4.72;;;27.20;99.90;;;;;;1894813;75;21103;-74
2023/05/28 11:51:45;;;;;;;5.55;4.92;;;27.30;99.90;;;;;;1894682;75;21098;-74
2023/05/28 11:54:36;;;;;;;5.87;4.42;;;27.50;99.90;;;;;;1898817;75;21142;-74
2023/05/28 11:57:29;;;;;;;6.47;5.33;;;27.50;99.90;;;;;;1883725;76;21599;-74
2023/05/28 12:00:20;;;;;;;5.85;4.80;;;27.50;99.90;;;;;;1905643;75;21142;-75
2023/05/28 12:03:13;;;;;;;5.92;4.50;;;27.60;99.90;;;;;;1883203;75;21106;-75
2023/05/28 12:06:06;;;;;;;5.90;4.45;;;27.60;99.90;;;;;;1883725;75;21119;-75
2023/05/28 12:08:59;;;;;;;5.35;4.83;;;27.60;99.90;;;;;;1898929;75;21224;-75
2023/05/28 12:12:08;;;;;;;6.30;4.28;;;27.70;99.90;;;;;;1894633;75;21122;-75
2023/05/28 12:15:01;;;;;;;5.10;4.35;;;27.80;99.90;;;;;;1874850;75;21191;-74
2023/05/28 12:17:57;;;;;;;6.30;4.37;;;27.80;99.90;;;;;;1875082;75;21144;-75
2023/05/28 12:20:48;;;;;;;3.87;3.42;;;27.80;99.90;;;;;;1882186;75;21204;-74
2023/05/28 12:23:41;;;;;;;4.62;4.08;;;28.00;99.90;;;;;;1883327;75;21107;-75
2023/05/28 12:26:32;;;;;;;5.53;4.08;;;28.00;99.90;;;;;;1882175;75;21106;-75
2023/05/28 12:29:24;;;;;;;5.95;4.53;;;28.00;99.90;;;;;;1895554;75;21094;-75
2023/05/28 12:32:15;;;;;;;6.25;4.45;;;28.10;99.90;;;;;;1882031;75;21063;-75
2023/05/28 12:35:07;;;;;;;4.95;4.05;;;28.20;99.90;;;;;;1886650;75;21101;-75
2023/05/28 12:37:58;;;;;;;4.35;3.85;;;28.20;99.90;;;;;;1883929;75;21585;-75
2023/05/28 12:40:50;;;;;;;5.03;4.42;;;28.10;99.90;;;;;;1875014;75;21144;-75
2023/05/28 12:43:42;;;;;;;5.20;4.15;;;28.20;99.90;;;;;;1892750;75;21152;-75
2023/05/28 12:46:34;;;;;;;4.75;4.20;;;28.10;99.90;;;;;;1883573;75;21102;-75
2023/05/28 12:49:26;;;;;;;4.58;4.20;;;28.10;99.90;;;;;;1897386;75;21192;-75
2023/05/28 12:52:17;;;;;;;4.90;4.40;;;28.10;99.90;;;;;;1894280;75;21056;-75
2023/05/28 12:55:10;;;;;;;6.05;4.30;;;28.30;99.90;;;;;;1894101;75;21127;-74
2023/05/28 12:58:03;;;;;;;4.65;4.25;;;28.30;99.90;;;;;;1909959;75;21180;-74
2023/05/28 13:00:55;;;;;;;4.85;4.05;;;28.50;99.90;;;;;;1895821;75;21195;-74
2023/05/28 13:03:47;;;;;;;6.83;4.37;;;28.70;99.90;;;;;;1881689;75;21047;-74
2023/05/28 13:06:38;;;;;;;4.90;4.40;;;28.80;99.90;;;;;;1879303;75;21170;-74
2023/05/28 13:09:30;;;;;;;5.80;4.42;;;29.10;99.90;;;;;;1883213;76;21118;-74
2023/05/28 13:12:22;;;;;;;5.17;4.67;;;29.10;99.90;;;;;;1887485;75;21095;-74
2023/05/28 13:15:13;;;;;;;5.50;4.37;;;29.20;99.90;;;;;;1895016;74;21134;-74
2023/05/28 13:18:05;;;;;;;5.35;4.85;;;29.20;99.90;;;;;;1903782;74;21168;-74
2023/05/28 13:20:57;;;;;;;5.97;4.80;;;29.10;99.90;;;;;;1903386;74;21697;-74
2023/05/28 13:23:49;;;;;;;5.58;4.78;;;28.90;99.90;;;;;;1907692;74;21097;-74
2023/05/28 13:26:40;;;;;;;5.40;4.70;;;28.80;99.90;;;;;;1892736;74;21168;-74
2023/05/28 13:29:32;;;;;;;6.45;4.47;;;28.70;99.90;;;;;;1912463;74;21095;-74
2023/05/28 13:32:23;;;;;;;4.95;4.45;;;28.60;99.90;;;;;;1914653;74;21150;-74
2023/05/28 13:35:15;;;;;;;6.33;4.20;;;28.40;99.90;;;;;;1912010;74;21102;-74
2023/05/28 13:38:06;;;;;;;6.35;4.72;;;28.40;99.90;;;;;;1906753;74;21125;-74
2023/05/28 13:40:57;;;;;;;5.20;4.70;;;28.30;99.90;;;;;;1895003;74;21094;-74
2023/05/28 13:43:49;;;;;;;4.87;4.05;;;28.10;99.90;;;;;;1893993;74;21184;-74
2023/05/28 13:46:40;;;;;;;5.12;4.17;;;27.90;99.90;;;;;;1904662;74;21117;-74
2023/05/28 13:49:32;;;;;;;6.08;4.30;;;27.70;99.90;;;;;;1892864;74;21060;-74
2023/05/28 13:52:23;;;;;;;4.28;3.87;;;27.50;99.90;;;;;;1903265;74;21156;-74
2023/05/28 13:55:16;;;;;;;6.37;4.20;;;27.40;99.90;;;;;;1903186;74;21107;-78
2023/05/28 13:58:07;;;;;;;4.62;4.15;;;27.30;99.90;;;;;;1903459;74;21132;-78
2023/05/28 14:00:58;;;;;;;6.33;4.37;;;27.30;99.90;;;;;;1907591;74;21094;-77
2023/05/28 14:03:51;;;;;;;5.30;4.12;;;27.30;99.90;;;;;;1904309;74;21605;-78
2023/05/28 14:06:43;;;;;;;8.25;3.95;;;27.20;99.90;;;;;;1899088;74;21049;-78
2023/05/28 14:09:34;;;;;;;4.50;4.10;;;27.20;99.90;;;;;;1915378;74;21145;-77
2023/05/28 14:12:25;;;;;;;5.22;4.08;;;27.20;99.90;;;;;;1906703;74;21557;-77
2023/05/28 14:17:57;;;;;;;6.22;3.90;;;27.20;99.90;;;;;;1932749;72;22273;-80
2023/05/28 14:20:48;;;;;;;4.53;3.85;;;27.30;99.90;;;;;;1893377;75;21114;-78
2023/05/28 14:23:40;;;;;;;4.17;3.65;;;27.30;99.90;;;;;;1879675;75;21168;-81
2023/05/28 14:26:32;;;;;;;4.45;3.60;;;27.30;99.90;;;;;;1883034;75;21507;-78
2023/05/28 14:29:27;;;;;;;5.78;4.08;;;27.30;99.90;;;;;;1889701;75;21173;-78
2023/05/28 14:32:18;;;;;;;7.37;3.77;;;27.40;99.90;;;;;;1870534;75;21110;-78
2023/05/28 14:35:10;;;;;;;4.00;3.50;;;27.50;99.90;;;;;;1903835;75;21087;-78
2023/05/28 14:38:03;;;;;;;6.47;3.80;;;27.40;99.90;;;;;;1891399;75;21243;-78
2023/05/28 14:40:58;;;;;;;5.00;3.62;;;27.50;99.90;;;;;;1872114;75;21168;-78
2023/05/28 14:43:50;;;;;;;6.40;3.62;;;27.50;99.90;;;;;;1893761;75;21172;-81
2023/05/28 14:46:42;;;;;;;6.25;3.12;;;27.50;99.90;;;;;;1893044;75;21083;-81
2023/05/28 14:49:34;;;;;;;5.30;3.55;;;27.50;99.90;;;;;;1886505;75;21131;-81
2023/05/28 14:52:28;;;;;;;5.00;3.50;;;27.40;99.90;;;;;;1880750;75;21190;-80
2023/05/28 14:55:19;;;;;;;5.28;3.40;;;27.40;99.90;;;;;;1876316;75;21196;-81
2023/05/28 14:58:11;;;;;;;5.58;3.42;;;27.50;99.90;;;;;;1893458;75;21094;-81
2023/05/28 15:03:43;;;;;;;4.62;3.37;;;27.80;99.90;;;;;;1951476;72;22193;-80
2023/05/28 15:06:35;;;;;;;5.22;3.35;;;28.20;99.90;;;;;;1905381;75;21122;-80
2023/05/28 15:09:26;;;;;;;4.62;3.33;;;28.60;99.90;;;;;;1903775;75;21659;-80
2023/05/28 15:12:17;;;;;;;5.67;3.12;;;29.10;99.90;;;;;;1887035;75;21113;-80
2023/05/28 15:15:11;;;;;;;5.15;3.62;;;29.40;99.90;;;;;;1903636;75;21118;-80
2023/05/28 15:18:02;;;;;;;5.47;3.77;;;29.50;99.90;;;;;;1904005;75;21028;-80
2023/05/28 15:20:54;;;;;;;6.08;3.45;;;29.30;99.90;;;;;;1902873;74;21110;-80